CCGS Cape Naden — CFN5482 — position and weather

sailwx.info

Track history (hours):
 
Tides and Currents Weather Stations Pressure Air Temp Water Temp Dewpoint Dewpoint Depression Visibility Wind Speed Wind Dir Waves Ship Positions

CCGS Cape Naden

Last reported at 2016-Jul-24 06:32 UTC. Time now 2016-Jul-24 06:54 UTC.
Position N 48°51' W 123°30'.

Length 15 m; draft 0.8 m.

Type: SAR. MMSI: 316017162.

Date/timePositionNaut miles runAvg speedWind from/ knotsBaromVisibWave heightAir tempDewpointWater temp
2016-Jul-24 06:32N 48°51' W 123°30'0 0.0
2016-Jul-24 05:32N 48°51' W 123°30'0 0.0
2016-Jul-24 04:26N 48°51' W 123°30'0 0.0
2016-Jul-24 03:31N 48°51' W 123°30'0 0.0
2016-Jul-24 02:21N 48°51' W 123°30'0 0.0
2016-Jul-24 01:29N 48°51' W 123°30'0 0.0
2016-Jul-24 00:33N 48°51' W 123°30'0 0.1
2016-Jul-23 23:32N 48°51' W 123°30'9 9.0
2016-Jul-23 22:33N 48°44' W 123°24'6 6.2
2016-Jul-23 21:33N 48°45' W 123°14'8 7.7
2016-Jul-23 20:33N 48°43' W 123°26'8 7.5
2016-Jul-23 19:30N 48°48' W 123°36'2 2.1
2016-Jul-23 18:30N 48°46' W 123°34'6 6.1
2016-Jul-23 17:32N 48°51' W 123°30'0 0.0
2016-Jul-23 16:31N 48°51' W 123°30'0 0.0
2016-Jul-23 15:33N 48°51' W 123°30'0 0.0
2016-Jul-23 14:32N 48°51' W 123°30'0 0.0
2016-Jul-23 13:12N 48°51' W 123°30'0 0.0
2016-Jul-23 12:13N 48°51' W 123°30'0 0.0
2016-Jul-23 04:19N 48°51' W 123°30'0 0.0
2016-Jul-23 01:25N 48°51' W 123°30'0 0.0
2016-Jul-22 23:30N 48°51' W 123°30'0 0.0
2016-Jul-22 22:32N 48°51' W 123°30'0 0.0
2016-Jul-22 20:33N 48°51' W 123°30'0 0.0
2016-Jul-22 16:31N 48°51' W 123°30'0 0.0
2016-Jul-22 03:05N 48°51' W 123°30'6 1.3
2016-Jul-21 22:27N 48°52' W 123°21'3 3.7
2016-Jul-21 21:34N 48°52' W 123°15'9 0.3
2016-Jul-20 13:29N 48°51' W 123°30'0 0.0
2016-Jul-20 11:10N 48°51' W 123°30'15 0.9
2016-Jul-19 19:33N 48°45' W 123°10'15 4.4
2016-Jul-19 16:15N 48°51' W 123°30'0 0.0
2016-Jul-19 15:32N 48°51' W 123°30'0 0.0
2016-Jul-19 14:32N 48°51' W 123°30'0 0.0
2016-Jul-19 13:33N 48°51' W 123°30'0 0.0
2016-Jul-19 12:33N 48°51' W 123°30'0 0.0
2016-Jul-19 11:31N 48°51' W 123°30'0 0.0
2016-Jul-19 10:32N 48°51' W 123°30'0 0.0
2016-Jul-19 09:25N 48°51' W 123°30'0 0.0
2016-Jul-19 08:29N 48°51' W 123°30'0 0.0
2016-Jul-19 07:31N 48°51' W 123°30'0 0.0
2016-Jul-19 00:32N 48°51' W 123°30'0 0.0
2016-Jul-18 21:11N 48°51' W 123°30'0 0.0
2016-Jul-18 12:18N 48°51' W 123°30'0 0.0
2016-Jul-18 09:05N 48°51' W 123°30'0 0.0
2016-Jul-18 07:22N 48°51' W 123°30'0 0.0
2016-Jul-18 03:31N 48°51' W 123°30'0 0.0
2016-Jul-18 02:16N 48°51' W 123°30'0 0.0
2016-Jul-18 01:18N 48°51' W 123°30'0 0.0
2016-Jul-18 00:12N 48°51' W 123°30'0 0.0
2016-Jul-17 23:27N 48°51' W 123°30'0 0.0
2016-Jul-17 22:32N 48°51' W 123°30'0 0.0
2016-Jul-17 21:33N 48°51' W 123°30'0 0.1
2016-Jul-17 20:19N 48°51' W 123°30'1820.4
2016-Jul-17 19:26N 48°35' W 123°18'6 7.4
2016-Jul-17 18:34N 48°29' W 123°16'2420.7
2016-Jul-17 17:23N 48°51' W 123°30'0 0.0
2016-Jul-17 12:33N 48°51' W 123°30'0 0.0
2016-Jul-17 11:31N 48°51' W 123°30'0 0.0
2016-Jul-17 10:30N 48°51' W 123°30'0 0.0
2016-Jul-17 06:09N 48°51' W 123°30'0 0.0
2016-Jul-17 02:23N 48°51' W 123°30'0 0.0
2016-Jul-17 01:31N 48°51' W 123°30'0 0.0
2016-Jul-17 00:26N 48°51' W 123°30'0 0.4
2016-Jul-16 23:29N 48°51' W 123°29'0 0.3
2016-Jul-16 22:24N 48°51' W 123°30'0 0.0
2016-Jul-16 21:27N 48°51' W 123°30'0 0.0
2016-Jul-16 20:20N 48°51' W 123°30'0 0.0
2016-Jul-16 19:33N 48°51' W 123°30'0 0.0
2016-Jul-16 18:32N 48°51' W 123°30'1 1.3
2016-Jul-16 17:33N 48°51' W 123°28'8 7.3
2016-Jul-16 16:31N 48°45' W 123°21'4 4.0
2016-Jul-16 15:30N 48°41' W 123°20'8 7.6
2016-Jul-16 14:30N 48°48' W 123°23'5 2.4
2016-Jul-16 12:16N 48°51' W 123°30'0 0.0
2016-Jul-16 11:31N 48°51' W 123°30'0 0.0
2016-Jul-16 10:33N 48°51' W 123°30'0 0.0
2016-Jul-16 09:33N 48°51' W 123°30'0 0.0
2016-Jul-16 08:32N 48°51' W 123°30'0 0.0
2016-Jul-16 07:19N 48°51' W 123°30'0 0.0
2016-Jul-16 06:32N 48°51' W 123°30'0 0.0
2016-Jul-16 04:32N 48°51' W 123°30'0 0.0
2016-Jul-16 03:31N 48°51' W 123°30'0 0.0
2016-Jul-16 02:30N 48°51' W 123°30'0 0.0
2016-Jul-16 01:26N 48°51' W 123°30'0 0.0
2016-Jul-16 00:23N 48°51' W 123°30'0 0.0
2016-Jul-15 23:16N 48°51' W 123°30'0 0.0
2016-Jul-15 22:31N 48°51' W 123°30'0 0.0
2016-Jul-15 21:04N 48°51' W 123°30'0 0.0
2016-Jul-15 19:20N 48°51' W 123°30'0 0.0
2016-Jul-15 14:25N 48°51' W 123°30'0 0.0
2016-Jul-15 11:16N 48°51' W 123°30'0 0.0
2016-Jul-15 10:27N 48°51' W 123°30'0 0.0
2016-Jul-15 09:31N 48°51' W 123°30'0 0.0
2016-Jul-15 08:23N 48°51' W 123°30'0 0.0
2016-Jul-15 07:33N 48°51' W 123°30'0 0.0
2016-Jul-15 06:32N 48°51' W 123°30'0 0.0
2016-Jul-15 04:30N 48°51' W 123°30'0 0.0
2016-Jul-15 03:33N 48°51' W 123°30'0 0.0
2016-Jul-15 02:30N 48°51' W 123°30'0 0.0
2016-Jul-15 00:21N 48°51' W 123°30'0 0.0
2016-Jul-14 23:33N 48°51' W 123°30'0 0.0
2016-Jul-14 22:32N 48°51' W 123°30'0 0.0
2016-Jul-14 21:25N 48°51' W 123°30'0 0.0
2016-Jul-14 20:30N 48°51' W 123°30'0 0.0
2016-Jul-14 19:10N 48°51' W 123°30'3 3.9
2016-Jul-14 18:30N 48°50' W 123°27'3 2.7
2016-Jul-14 17:33N 48°51' W 123°30'0 0.0
2016-Jul-14 16:31N 48°51' W 123°30'0 0.0
2016-Jul-14 15:30N 48°51' W 123°30'0 0.0
2016-Jul-14 14:33N 48°51' W 123°30'0 0.0
2016-Jul-14 13:18N 48°51' W 123°30'0 0.0
2016-Jul-14 12:29N 48°51' W 123°30'0 0.0
2016-Jul-14 11:16N 48°51' W 123°30'0 0.0
2016-Jul-14 10:33N 48°51' W 123°30'  
Track history (hours):
 
Tides and Currents Weather Stations Pressure Air Temp Water Temp Dewpoint Dewpoint Depression Visibility Wind Speed Wind Dir Waves Ship Positions

CCGS Cape Naden

Last reported at 2016-Jul-24 06:32 UTC. Time now 2016-Jul-24 06:54 UTC.
Position N 48°51' W 123°30'.

Length 15 m; draft 0.8 m.

Type: SAR. MMSI: 316017162.

Date/timePositionNaut miles runAvg speedWind from/ knotsBaromVisibWave heightAir tempDewpointWater temp
2016-Jul-24 06:32N 48°51' W 123°30'0 0.0
2016-Jul-24 05:32N 48°51' W 123°30'0 0.0
2016-Jul-24 04:26N 48°51' W 123°30'0 0.0
2016-Jul-24 03:31N 48°51' W 123°30'0 0.0
2016-Jul-24 02:21N 48°51' W 123°30'0 0.0
2016-Jul-24 01:29N 48°51' W 123°30'0 0.0
2016-Jul-24 00:33N 48°51' W 123°30'0 0.1
2016-Jul-23 23:32N 48°51' W 123°30'9 9.0
2016-Jul-23 22:33N 48°44' W 123°24'6 6.2
2016-Jul-23 21:33N 48°45' W 123°14'8 7.7
2016-Jul-23 20:33N 48°43' W 123°26'8 7.5
2016-Jul-23 19:30N 48°48' W 123°36'2 2.1
2016-Jul-23 18:30N 48°46' W 123°34'6 6.1
2016-Jul-23 17:32N 48°51' W 123°30'0 0.0
2016-Jul-23 16:31N 48°51' W 123°30'0 0.0
2016-Jul-23 15:33N 48°51' W 123°30'0 0.0
2016-Jul-23 14:32N 48°51' W 123°30'0 0.0
2016-Jul-23 13:12N 48°51' W 123°30'0 0.0
2016-Jul-23 12:13N 48°51' W 123°30'0 0.0
2016-Jul-23 04:19N 48°51' W 123°30'0 0.0
2016-Jul-23 01:25N 48°51' W 123°30'0 0.0
2016-Jul-22 23:30N 48°51' W 123°30'0 0.0
2016-Jul-22 22:32N 48°51' W 123°30'0 0.0
2016-Jul-22 20:33N 48°51' W 123°30'0 0.0
2016-Jul-22 16:31N 48°51' W 123°30'0 0.0
2016-Jul-22 03:05N 48°51' W 123°30'6 1.3
2016-Jul-21 22:27N 48°52' W 123°21'3 3.7
2016-Jul-21 21:34N 48°52' W 123°15'9 0.3
2016-Jul-20 13:29N 48°51' W 123°30'0 0.0
2016-Jul-20 11:10N 48°51' W 123°30'15 0.9
2016-Jul-19 19:33N 48°45' W 123°10'15 4.4
2016-Jul-19 16:15N 48°51' W 123°30'0 0.0
2016-Jul-19 15:32N 48°51' W 123°30'0 0.0
2016-Jul-19 14:32N 48°51' W 123°30'0 0.0
2016-Jul-19 13:33N 48°51' W 123°30'0 0.0
2016-Jul-19 12:33N 48°51' W 123°30'0 0.0
2016-Jul-19 11:31N 48°51' W 123°30'0 0.0
2016-Jul-19 10:32N 48°51' W 123°30'0 0.0
2016-Jul-19 09:25N 48°51' W 123°30'0 0.0
2016-Jul-19 08:29N 48°51' W 123°30'0 0.0
2016-Jul-19 07:31N 48°51' W 123°30'0 0.0
2016-Jul-19 00:32N 48°51' W 123°30'0 0.0
2016-Jul-18 21:11N 48°51' W 123°30'0 0.0
2016-Jul-18 12:18N 48°51' W 123°30'0 0.0
2016-Jul-18 09:05N 48°51' W 123°30'0 0.0
2016-Jul-18 07:22N 48°51' W 123°30'0 0.0
2016-Jul-18 03:31N 48°51' W 123°30'0 0.0
2016-Jul-18 02:16N 48°51' W 123°30'0 0.0
2016-Jul-18 01:18N 48°51' W 123°30'0 0.0
2016-Jul-18 00:12N 48°51' W 123°30'0 0.0
2016-Jul-17 23:27N 48°51' W 123°30'0 0.0
2016-Jul-17 22:32N 48°51' W 123°30'0 0.0
2016-Jul-17 21:33N 48°51' W 123°30'0 0.1
2016-Jul-17 20:19N 48°51' W 123°30'1820.4
2016-Jul-17 19:26N 48°35' W 123°18'6 7.4
2016-Jul-17 18:34N 48°29' W 123°16'2420.7
2016-Jul-17 17:23N 48°51' W 123°30'0 0.0
2016-Jul-17 12:33N 48°51' W 123°30'0 0.0
2016-Jul-17 11:31N 48°51' W 123°30'0 0.0
2016-Jul-17 10:30N 48°51' W 123°30'0 0.0
2016-Jul-17 06:09N 48°51' W 123°30'0 0.0
2016-Jul-17 02:23N 48°51' W 123°30'0 0.0
2016-Jul-17 01:31N 48°51' W 123°30'0 0.0
2016-Jul-17 00:26N 48°51' W 123°30'0 0.4
2016-Jul-16 23:29N 48°51' W 123°29'0 0.3
2016-Jul-16 22:24N 48°51' W 123°30'0 0.0
2016-Jul-16 21:27N 48°51' W 123°30'0 0.0
2016-Jul-16 20:20N 48°51' W 123°30'0 0.0
2016-Jul-16 19:33N 48°51' W 123°30'0 0.0
2016-Jul-16 18:32N 48°51' W 123°30'1 1.3
2016-Jul-16 17:33N 48°51' W 123°28'8 7.3
2016-Jul-16 16:31N 48°45' W 123°21'4 4.0
2016-Jul-16 15:30N 48°41' W 123°20'8 7.6
2016-Jul-16 14:30N 48°48' W 123°23'5 2.4
2016-Jul-16 12:16N 48°51' W 123°30'0 0.0
2016-Jul-16 11:31N 48°51' W 123°30'0 0.0
2016-Jul-16 10:33N 48°51' W 123°30'0 0.0
2016-Jul-16 09:33N 48°51' W 123°30'0 0.0
2016-Jul-16 08:32N 48°51' W 123°30'0 0.0
2016-Jul-16 07:19N 48°51' W 123°30'0 0.0
2016-Jul-16 06:32N 48°51' W 123°30'0 0.0
2016-Jul-16 04:32N 48°51' W 123°30'0 0.0
2016-Jul-16 03:31N 48°51' W 123°30'0 0.0
2016-Jul-16 02:30N 48°51' W 123°30'0 0.0
2016-Jul-16 01:26N 48°51' W 123°30'0 0.0
2016-Jul-16 00:23N 48°51' W 123°30'0 0.0
2016-Jul-15 23:16N 48°51' W 123°30'0 0.0
2016-Jul-15 22:31N 48°51' W 123°30'0 0.0
2016-Jul-15 21:04N 48°51' W 123°30'0 0.0
2016-Jul-15 19:20N 48°51' W 123°30'0 0.0
2016-Jul-15 14:25N 48°51' W 123°30'0 0.0
2016-Jul-15 11:16N 48°51' W 123°30'0 0.0
2016-Jul-15 10:27N 48°51' W 123°30'0 0.0
2016-Jul-15 09:31N 48°51' W 123°30'0 0.0
2016-Jul-15 08:23N 48°51' W 123°30'0 0.0
2016-Jul-15 07:33N 48°51' W 123°30'0 0.0
2016-Jul-15 06:32N 48°51' W 123°30'0 0.0
2016-Jul-15 04:30N 48°51' W 123°30'0 0.0
2016-Jul-15 03:33N 48°51' W 123°30'0 0.0
2016-Jul-15 02:30N 48°51' W 123°30'0 0.0
2016-Jul-15 00:21N 48°51' W 123°30'0 0.0
2016-Jul-14 23:33N 48°51' W 123°30'0 0.0
2016-Jul-14 22:32N 48°51' W 123°30'0 0.0
2016-Jul-14 21:25N 48°51' W 123°30'0 0.0
2016-Jul-14 20:30N 48°51' W 123°30'0 0.0
2016-Jul-14 19:10N 48°51' W 123°30'3 3.9
2016-Jul-14 18:30N 48°50' W 123°27'3 2.7
2016-Jul-14 17:33N 48°51' W 123°30'0 0.0
2016-Jul-14 16:31N 48°51' W 123°30'0 0.0
2016-Jul-14 15:30N 48°51' W 123°30'0 0.0
2016-Jul-14 14:33N 48°51' W 123°30'0 0.0
2016-Jul-14 13:18N 48°51' W 123°30'0 0.0
2016-Jul-14 12:29N 48°51' W 123°30'0 0.0
2016-Jul-14 11:16N 48°51' W 123°30'0 0.0
2016-Jul-14 10:33N 48°51' W 123°30'  

Dump ship's entire track history